sensor_id;sensor_type;location;lat;lon;timestamp;P1;durP1;ratioP1;P2;durP2;ratioP2
44197;SDS011;30157;55.512;37.764;2022-10-13T00:00:11;17.05;;;9.40;;
44197;SDS011;30157;55.512;37.764;2022-10-13T00:02:37;17.98;;;9.88;;
44197;SDS011;30157;55.512;37.764;2022-10-13T00:05:03;15.25;;;9.35;;
44197;SDS011;30157;55.512;37.764;2022-10-13T00:07:29;15.75;;;9.48;;
44197;SDS011;30157;55.512;37.764;2022-10-13T00:09:55;16.77;;;8.55;;
44197;SDS011;30157;55.512;37.764;2022-10-13T00:12:21;14.52;;;8.35;;
44197;SDS011;30157;55.512;37.764;2022-10-13T00:14:46;14.93;;;8.45;;
44197;SDS011;30157;55.512;37.764;2022-10-13T00:17:12;12.93;;;7.80;;
44197;SDS011;30157;55.512;37.764;2022-10-13T00:19:38;13.85;;;7.25;;
44197;SDS011;30157;55.512;37.764;2022-10-13T00:22:04;17.02;;;8.07;;
44197;SDS011;30157;55.512;37.764;2022-10-13T00:24:30;12.32;;;6.93;;
44197;SDS011;30157;55.512;37.764;2022-10-13T00:26:56;13.13;;;7.10;;
44197;SDS011;30157;55.512;37.764;2022-10-13T00:29:21;15.50;;;7.07;;
44197;SDS011;30157;55.512;37.764;2022-10-13T00:31:47;10.63;;;6.80;;
44197;SDS011;30157;55.512;37.764;2022-10-13T00:34:13;10.65;;;6.60;;
44197;SDS011;30157;55.512;37.764;2022-10-13T00:36:38;12.48;;;6.82;;
44197;SDS011;30157;55.512;37.764;2022-10-13T00:39:04;12.85;;;6.90;;
44197;SDS011;30157;55.512;37.764;2022-10-13T00:41:30;12.20;;;6.07;;
44197;SDS011;30157;55.512;37.764;2022-10-13T00:44:00;11.18;;;6.40;;
44197;SDS011;30157;55.512;37.764;2022-10-13T00:46:28;8.80;;;5.88;;
44197;SDS011;30157;55.512;37.764;2022-10-13T00:48:57;9.18;;;5.53;;
44197;SDS011;30157;55.512;37.764;2022-10-13T00:51:26;11.13;;;6.03;;
44197;SDS011;30157;55.512;37.764;2022-10-13T00:53:55;9.73;;;5.60;;
44197;SDS011;30157;55.512;37.764;2022-10-13T00:56:23;9.20;;;5.47;;
44197;SDS011;30157;55.512;37.764;2022-10-13T00:58:51;10.07;;;5.47;;
44197;SDS011;30157;55.512;37.764;2022-10-13T01:01:18;12.02;;;5.68;;
44197;SDS011;30157;55.512;37.764;2022-10-13T01:03:44;10.48;;;5.53;;
44197;SDS011;30157;55.512;37.764;2022-10-13T01:06:10;10.02;;;5.50;;
44197;SDS011;30157;55.512;37.764;2022-10-13T01:08:37;8.80;;;5.38;;
44197;SDS011;30157;55.512;37.764;2022-10-13T01:30:23;10.27;;;5.53;;
44197;SDS011;30157;55.512;37.764;2022-10-13T01:40:45;11.85;;;5.85;;
44197;SDS011;30157;55.512;37.764;2022-10-13T01:43:23;10.15;;;5.97;;
44197;SDS011;30157;55.512;37.764;2022-10-13T01:46:05;8.02;;;4.82;;
44197;SDS011;30157;55.512;37.764;2022-10-13T01:48:37;11.90;;;5.60;;
44197;SDS011;30157;55.512;37.764;2022-10-13T01:51:05;11.45;;;5.72;;
44197;SDS011;30157;55.512;37.764;2022-10-13T01:53:33;12.65;;;5.72;;
44197;SDS011;30157;55.512;37.764;2022-10-13T01:56:00;8.45;;;5.40;;
44197;SDS011;30157;55.512;37.764;2022-10-13T01:58:26;9.20;;;5.18;;
44197;SDS011;30157;55.512;37.764;2022-10-13T02:09:21;10.32;;;5.47;;
44197;SDS011;30157;55.512;37.764;2022-10-13T02:11:57;9.65;;;5.22;;
44197;SDS011;30157;55.512;37.764;2022-10-13T02:14:32;8.30;;;4.97;;
44197;SDS011;30157;55.512;37.764;2022-10-13T02:17:03;12.20;;;4.80;;
44197;SDS011;30157;55.512;37.764;2022-10-13T02:19:30;9.15;;;5.00;;
44197;SDS011;30157;55.512;37.764;2022-10-13T02:21:58;9.68;;;5.60;;
44197;SDS011;30157;55.512;37.764;2022-10-13T02:24:24;8.70;;;4.85;;
44197;SDS011;30157;55.512;37.764;2022-10-13T02:26:50;8.70;;;5.25;;
44197;SDS011;30157;55.512;37.764;2022-10-13T02:29:18;8.50;;;4.95;;
44197;SDS011;30157;55.512;37.764;2022-10-13T02:31:45;11.43;;;5.30;;
44197;SDS011;30157;55.512;37.764;2022-10-13T02:34:11;8.75;;;4.50;;
44197;SDS011;30157;55.512;37.764;2022-10-13T02:36:38;6.78;;;4.47;;
44197;SDS011;30157;55.512;37.764;2022-10-13T02:39:04;7.70;;;4.35;;
44197;SDS011;30157;55.512;37.764;2022-10-13T02:41:32;7.55;;;4.38;;
44197;SDS011;30157;55.512;37.764;2022-10-13T02:43:57;9.98;;;4.95;;
44197;SDS011;30157;55.512;37.764;2022-10-13T02:46:31;7.13;;;4.53;;
44197;SDS011;30157;55.512;37.764;2022-10-13T02:48:57;7.80;;;4.50;;
44197;SDS011;30157;55.512;37.764;2022-10-13T02:51:24;8.52;;;5.00;;
44197;SDS011;30157;55.512;37.764;2022-10-13T02:53:50;10.57;;;4.88;;
44197;SDS011;30157;55.512;37.764;2022-10-13T02:56:16;7.78;;;4.60;;
44197;SDS011;30157;55.512;37.764;2022-10-13T02:58:42;7.30;;;4.40;;
44197;SDS011;30157;55.512;37.764;2022-10-13T03:01:09;9.35;;;4.47;;
44197;SDS011;30157;55.512;37.764;2022-10-13T03:03:37;8.50;;;4.80;;
44197;SDS011;30157;55.512;37.764;2022-10-13T03:06:04;7.60;;;4.55;;
44197;SDS011;30157;55.512;37.764;2022-10-13T03:08:33;6.28;;;4.00;;
44197;SDS011;30157;55.512;37.764;2022-10-13T03:10:59;6.30;;;3.88;;
44197;SDS011;30157;55.512;37.764;2022-10-13T03:13:28;6.25;;;3.63;;
44197;SDS011;30157;55.512;37.764;2022-10-13T03:16:03;6.07;;;4.00;;
44197;SDS011;30157;55.512;37.764;2022-10-13T03:18:29;10.13;;;3.97;;
44197;SDS011;30157;55.512;37.764;2022-10-13T03:20:56;7.15;;;4.60;;
44197;SDS011;30157;55.512;37.764;2022-10-13T03:23:25;9.88;;;4.07;;
44197;SDS011;30157;55.512;37.764;2022-10-13T03:25:51;7.40;;;3.92;;
44197;SDS011;30157;55.512;37.764;2022-10-13T03:28:18;8.35;;;4.35;;
44197;SDS011;30157;55.512;37.764;2022-10-13T03:30:44;6.70;;;4.20;;
44197;SDS011;30157;55.512;37.764;2022-10-13T03:33:10;9.35;;;4.30;;
44197;SDS011;30157;55.512;37.764;2022-10-13T03:35:35;5.95;;;3.75;;
44197;SDS011;30157;55.512;37.764;2022-10-13T03:38:01;7.57;;;4.00;;
44197;SDS011;30157;55.512;37.764;2022-10-13T03:40:28;6.55;;;3.80;;
44197;SDS011;30157;55.512;37.764;2022-10-13T03:42:54;9.13;;;4.60;;
44197;SDS011;30157;55.512;37.764;2022-10-13T03:45:20;6.43;;;3.55;;
44197;SDS011;30157;55.512;37.764;2022-10-13T03:47:45;7.30;;;3.90;;
44197;SDS011;30157;55.512;37.764;2022-10-13T03:50:11;6.43;;;3.58;;
44197;SDS011;30157;55.512;37.764;2022-10-13T03:52:37;8.48;;;4.50;;
44197;SDS011;30157;55.512;37.764;2022-10-13T03:55:03;12.07;;;4.80;;
44197;SDS011;30157;55.512;37.764;2022-10-13T03:57:29;10.10;;;4.70;;
44197;SDS011;30157;55.512;37.764;2022-10-13T03:59:55;8.60;;;4.68;;
44197;SDS011;30157;55.512;37.764;2022-10-13T04:02:25;7.25;;;4.32;;
44197;SDS011;30157;55.512;37.764;2022-10-13T04:04:53;7.40;;;4.68;;
44197;SDS011;30157;55.512;37.764;2022-10-13T04:07:18;9.00;;;4.93;;
44197;SDS011;30157;55.512;37.764;2022-10-13T04:09:45;10.20;;;4.78;;
44197;SDS011;30157;55.512;37.764;2022-10-13T04:12:10;9.50;;;5.10;;
44197;SDS011;30157;55.512;37.764;2022-10-13T04:14:36;9.10;;;5.38;;
44197;SDS011;30157;55.512;37.764;2022-10-13T04:17:06;10.20;;;5.50;;
44197;SDS011;30157;55.512;37.764;2022-10-13T04:19:32;11.68;;;4.97;;
44197;SDS011;30157;55.512;37.764;2022-10-13T04:22:04;10.07;;;4.88;;
44197;SDS011;30157;55.512;37.764;2022-10-13T04:24:30;7.68;;;4.65;;
44197;SDS011;30157;55.512;37.764;2022-10-13T04:26:55;7.45;;;4.00;;
44197;SDS011;30157;55.512;37.764;2022-10-13T04:29:21;8.80;;;5.07;;
44197;SDS011;30157;55.512;37.764;2022-10-13T04:31:50;9.43;;;4.97;;
44197;SDS011;30157;55.512;37.764;2022-10-13T04:34:16;10.13;;;5.03;;
44197;SDS011;30157;55.512;37.764;2022-10-13T04:36:42;12.13;;;6.43;;
44197;SDS011;30157;55.512;37.764;2022-10-13T04:39:07;32.05;;;15.20;;
44197;SDS011;30157;55.512;37.764;2022-10-13T04:41:33;12.48;;;7.00;;
44197;SDS011;30157;55.512;37.764;2022-10-13T04:43:59;12.40;;;5.90;;
44197;SDS011;30157;55.512;37.764;2022-10-13T04:46:27;9.63;;;5.70;;
44197;SDS011;30157;55.512;37.764;2022-10-13T04:48:55;9.63;;;5.43;;
44197;SDS011;30157;55.512;37.764;2022-10-13T04:51:27;10.70;;;6.72;;
44197;SDS011;30157;55.512;37.764;2022-10-13T04:53:54;10.85;;;6.22;;
44197;SDS011;30157;55.512;37.764;2022-10-13T04:56:24;10.27;;;5.80;;
44197;SDS011;30157;55.512;37.764;2022-10-13T04:58:50;9.98;;;5.93;;
44197;SDS011;30157;55.512;37.764;2022-10-13T05:01:16;12.23;;;6.45;;
44197;SDS011;30157;55.512;37.764;2022-10-13T05:03:44;13.18;;;6.70;;
44197;SDS011;30157;55.512;37.764;2022-10-13T05:06:18;10.60;;;6.32;;
44197;SDS011;30157;55.512;37.764;2022-10-13T05:08:48;10.20;;;5.90;;
44197;SDS011;30157;55.512;37.764;2022-10-13T05:11:15;13.02;;;6.78;;
44197;SDS011;30157;55.512;37.764;2022-10-13T05:13:42;11.73;;;6.32;;
44197;SDS011;30157;55.512;37.764;2022-10-13T05:16:08;11.05;;;6.50;;
44197;SDS011;30157;55.512;37.764;2022-10-13T05:18:37;11.88;;;6.72;;
44197;SDS011;30157;55.512;37.764;2022-10-13T05:21:10;14.05;;;6.88;;
44197;SDS011;30157;55.512;37.764;2022-10-13T05:23:40;12.05;;;7.00;;
44197;SDS011;30157;55.512;37.764;2022-10-13T05:26:11;13.25;;;6.78;;
44197;SDS011;30157;55.512;37.764;2022-10-13T05:28:39;11.00;;;6.75;;
44197;SDS011;30157;55.512;37.764;2022-10-13T05:33:38;15.05;;;7.07;;
44197;SDS011;30157;55.512;37.764;2022-10-13T05:36:08;13.15;;;7.43;;
44197;SDS011;30157;55.512;37.764;2022-10-13T05:38:36;13.57;;;6.97;;
44197;SDS011;30157;55.512;37.764;2022-10-13T05:41:03;11.32;;;6.50;;
44197;SDS011;30157;55.512;37.764;2022-10-13T05:43:33;12.98;;;7.35;;
44197;SDS011;30157;55.512;37.764;2022-10-13T05:45:59;13.23;;;6.82;;
44197;SDS011;30157;55.512;37.764;2022-10-13T05:48:27;12.73;;;7.40;;
44197;SDS011;30157;55.512;37.764;2022-10-13T05:50:53;17.40;;;8.70;;
44197;SDS011;30157;55.512;37.764;2022-10-13T05:53:22;18.02;;;8.90;;
44197;SDS011;30157;55.512;37.764;2022-10-13T05:55:50;16.00;;;9.50;;
44197;SDS011;30157;55.512;37.764;2022-10-13T05:58:18;14.38;;;8.30;;
44197;SDS011;30157;55.512;37.764;2022-10-13T06:00:44;13.70;;;7.82;;
44197;SDS011;30157;55.512;37.764;2022-10-13T06:03:11;17.15;;;7.55;;
44197;SDS011;30157;55.512;37.764;2022-10-13T06:05:42;19.35;;;7.40;;
44197;SDS011;30157;55.512;37.764;2022-10-13T06:08:12;13.27;;;7.80;;
44197;SDS011;30157;55.512;37.764;2022-10-13T06:10:39;10.63;;;6.68;;
44197;SDS011;30157;55.512;37.764;2022-10-13T06:13:06;11.02;;;6.53;;
44197;SDS011;30157;55.512;37.764;2022-10-13T06:15:32;13.80;;;7.32;;
44197;SDS011;30157;55.512;37.764;2022-10-13T06:17:58;12.32;;;7.13;;
44197;SDS011;30157;55.512;37.764;2022-10-13T06:20:24;13.05;;;7.00;;
44197;SDS011;30157;55.512;37.764;2022-10-13T06:22:53;12.00;;;6.35;;
44197;SDS011;30157;55.512;37.764;2022-10-13T06:25:19;12.88;;;6.90;;
44197;SDS011;30157;55.512;37.764;2022-10-13T06:27:47;13.63;;;7.35;;
44197;SDS011;30157;55.512;37.764;2022-10-13T06:30:13;13.57;;;7.10;;
44197;SDS011;30157;55.512;37.764;2022-10-13T06:32:39;12.57;;;7.32;;
44197;SDS011;30157;55.512;37.764;2022-10-13T06:35:05;11.90;;;7.18;;
44197;SDS011;30157;55.512;37.764;2022-10-13T06:37:33;11.45;;;7.18;;
44197;SDS011;30157;55.512;37.764;2022-10-13T06:39:59;13.40;;;7.70;;
44197;SDS011;30157;55.512;37.764;2022-10-13T06:42:25;14.38;;;8.07;;
44197;SDS011;30157;55.512;37.764;2022-10-13T06:45:07;17.65;;;9.50;;
44197;SDS011;30157;55.512;37.764;2022-10-13T06:47:33;14.43;;;9.23;;
44197;SDS011;30157;55.512;37.764;2022-10-13T06:49:59;15.38;;;9.35;;
44197;SDS011;30157;55.512;37.764;2022-10-13T06:52:24;16.15;;;9.38;;
44197;SDS011;30157;55.512;37.764;2022-10-13T06:54:52;16.92;;;9.60;;
44197;SDS011;30157;55.512;37.764;2022-10-13T06:57:18;17.35;;;9.98;;
44197;SDS011;30157;55.512;37.764;2022-10-13T06:59:44;15.40;;;9.10;;
44197;SDS011;30157;55.512;37.764;2022-10-13T07:02:09;14.38;;;9.05;;
44197;SDS011;30157;55.512;37.764;2022-10-13T07:04:35;16.25;;;8.00;;
44197;SDS011;30157;55.512;37.764;2022-10-13T07:07:09;17.35;;;9.40;;
44197;SDS011;30157;55.512;37.764;2022-10-13T07:09:35;17.85;;;9.20;;
44197;SDS011;30157;55.512;37.764;2022-10-13T07:12:01;15.80;;;9.48;;
44197;SDS011;30157;55.512;37.764;2022-10-13T07:14:27;14.80;;;8.52;;
44197;SDS011;30157;55.512;37.764;2022-10-13T07:16:53;16.27;;;9.30;;
44197;SDS011;30157;55.512;37.764;2022-10-13T07:19:18;17.85;;;9.02;;
44197;SDS011;30157;55.512;37.764;2022-10-13T07:21:44;16.88;;;10.50;;
44197;SDS011;30157;55.512;37.764;2022-10-13T07:24:10;24.20;;;13.80;;
44197;SDS011;30157;55.512;37.764;2022-10-13T07:26:35;23.95;;;14.05;;
44197;SDS011;30157;55.512;37.764;2022-10-13T07:29:02;19.52;;;11.90;;
44197;SDS011;30157;55.512;37.764;2022-10-13T07:31:28;16.35;;;9.15;;
44197;SDS011;30157;55.512;37.764;2022-10-13T07:33:54;15.48;;;9.00;;
44197;SDS011;30157;55.512;37.764;2022-10-13T07:36:25;13.50;;;7.72;;
44197;SDS011;30157;55.512;37.764;2022-10-13T07:38:52;13.15;;;8.40;;
44197;SDS011;30157;55.512;37.764;2022-10-13T07:41:18;14.18;;;8.02;;
44197;SDS011;30157;55.512;37.764;2022-10-13T07:43:43;10.43;;;7.20;;
44197;SDS011;30157;55.512;37.764;2022-10-13T07:46:11;11.77;;;6.70;;
44197;SDS011;30157;55.512;37.764;2022-10-13T07:48:37;9.80;;;6.35;;
44197;SDS011;30157;55.512;37.764;2022-10-13T07:51:07;9.90;;;6.18;;
44197;SDS011;30157;55.512;37.764;2022-10-13T07:53:35;13.73;;;6.97;;
44197;SDS011;30157;55.512;37.764;2022-10-13T07:56:01;15.55;;;6.45;;
44197;SDS011;30157;55.512;37.764;2022-10-13T07:58:29;13.05;;;6.75;;
44197;SDS011;30157;55.512;37.764;2022-10-13T08:00:59;18.27;;;7.90;;
44197;SDS011;30157;55.512;37.764;2022-10-13T08:03:25;13.38;;;7.78;;
44197;SDS011;30157;55.512;37.764;2022-10-13T08:05:52;17.85;;;8.60;;
44197;SDS011;30157;55.512;37.764;2022-10-13T08:08:18;14.68;;;8.07;;
44197;SDS011;30157;55.512;37.764;2022-10-13T08:10:45;13.32;;;8.13;;
44197;SDS011;30157;55.512;37.764;2022-10-13T08:13:11;14.40;;;9.02;;
44197;SDS011;30157;55.512;37.764;2022-10-13T08:15:40;13.70;;;8.68;;
44197;SDS011;30157;55.512;37.764;2022-10-13T08:18:08;15.63;;;8.25;;
44197;SDS011;30157;55.512;37.764;2022-10-13T08:20:34;14.30;;;8.27;;
44197;SDS011;30157;55.512;37.764;2022-10-13T08:23:04;17.33;;;8.93;;
44197;SDS011;30157;55.512;37.764;2022-10-13T08:25:30;11.57;;;7.10;;
44197;SDS011;30157;55.512;37.764;2022-10-13T08:28:04;13.55;;;7.10;;
44197;SDS011;30157;55.512;37.764;2022-10-13T08:30:30;11.40;;;7.28;;
44197;SDS011;30157;55.512;37.764;2022-10-13T08:32:56;10.77;;;7.38;;
44197;SDS011;30157;55.512;37.764;2022-10-13T08:35:22;13.00;;;6.75;;
44197;SDS011;30157;55.512;37.764;2022-10-13T08:37:47;10.38;;;6.70;;
44197;SDS011;30157;55.512;37.764;2022-10-13T08:40:18;9.95;;;6.18;;
44197;SDS011;30157;55.512;37.764;2022-10-13T08:42:47;12.98;;;6.55;;
44197;SDS011;30157;55.512;37.764;2022-10-13T08:45:15;10.02;;;6.40;;
44197;SDS011;30157;55.512;37.764;2022-10-13T08:47:47;8.40;;;6.05;;
44197;SDS011;30157;55.512;37.764;2022-10-13T08:50:28;13.88;;;6.13;;
44197;SDS011;30157;55.512;37.764;2022-10-13T08:57:58;8.40;;;5.30;;
44197;SDS011;30157;55.512;37.764;2022-10-13T09:00:25;10.02;;;5.57;;
44197;SDS011;30157;55.512;37.764;2022-10-13T09:02:51;7.72;;;5.40;;
44197;SDS011;30157;55.512;37.764;2022-10-13T09:05:36;8.63;;;5.55;;
44197;SDS011;30157;55.512;37.764;2022-10-13T09:08:14;7.57;;;5.47;;
44197;SDS011;30157;55.512;37.764;2022-10-13T09:10:50;8.65;;;6.22;;
44197;SDS011;30157;55.512;37.764;2022-10-13T09:13:17;10.00;;;5.68;;
44197;SDS011;30157;55.512;37.764;2022-10-13T09:15:45;9.38;;;5.70;;
44197;SDS011;30157;55.512;37.764;2022-10-13T09:18:14;10.65;;;6.60;;
44197;SDS011;30157;55.512;37.764;2022-10-13T09:20:40;13.10;;;6.72;;
44197;SDS011;30157;55.512;37.764;2022-10-13T09:25:39;9.68;;;6.50;;
44197;SDS011;30157;55.512;37.764;2022-10-13T09:28:23;10.20;;;5.30;;
44197;SDS011;30157;55.512;37.764;2022-10-13T09:31:00;8.07;;;5.00;;
44197;SDS011;30157;55.512;37.764;2022-10-13T09:33:33;8.80;;;5.05;;
44197;SDS011;30157;55.512;37.764;2022-10-13T09:38:31;9.10;;;4.18;;
44197;SDS011;30157;55.512;37.764;2022-10-13T09:46:26;9.73;;;4.43;;
44197;SDS011;30157;55.512;37.764;2022-10-13T09:49:00;7.57;;;4.30;;
44197;SDS011;30157;55.512;37.764;2022-10-13T09:51:34;8.15;;;4.50;;
44197;SDS011;30157;55.512;37.764;2022-10-13T10:00:10;6.50;;;4.10;;
44197;SDS011;30157;55.512;37.764;2022-10-13T10:10:50;5.00;;;3.40;;
44197;SDS011;30157;55.512;37.764;2022-10-13T10:13:17;5.53;;;2.97;;
44197;SDS011;30157;55.512;37.764;2022-10-13T10:21:05;6.70;;;3.15;;
44197;SDS011;30157;55.512;37.764;2022-10-13T10:23:58;5.88;;;3.70;;
44197;SDS011;30157;55.512;37.764;2022-10-13T10:26:50;8.38;;;3.50;;
44197;SDS011;30157;55.512;37.764;2022-10-13T10:29:26;6.00;;;3.63;;
44197;SDS011;30157;55.512;37.764;2022-10-13T10:37:56;6.82;;;3.30;;
44197;SDS011;30157;55.512;37.764;2022-10-13T10:43:46;4.70;;;3.28;;
44197;SDS011;30157;55.512;37.764;2022-10-13T10:46:17;5.30;;;3.60;;
44197;SDS011;30157;55.512;37.764;2022-10-13T10:48:47;5.85;;;3.15;;
44197;SDS011;30157;55.512;37.764;2022-10-13T10:51:15;7.25;;;3.95;;
44197;SDS011;30157;55.512;37.764;2022-10-13T10:56:36;7.72;;;4.50;;
44197;SDS011;30157;55.512;37.764;2022-10-13T11:04:47;7.95;;;4.45;;
44197;SDS011;30157;55.512;37.764;2022-10-13T11:25:43;6.47;;;4.18;;
44197;SDS011;30157;55.512;37.764;2022-10-13T11:30:53;5.45;;;4.05;;
44197;SDS011;30157;55.512;37.764;2022-10-13T11:47:08;5.90;;;4.03;;
44197;SDS011;30157;55.512;37.764;2022-10-13T11:50:00;9.07;;;5.63;;
44197;SDS011;30157;55.512;37.764;2022-10-13T11:53:02;8.02;;;5.07;;
44197;SDS011;30157;55.512;37.764;2022-10-13T11:55:41;4.88;;;3.15;;
44197;SDS011;30157;55.512;37.764;2022-10-13T11:58:16;5.70;;;3.10;;
44197;SDS011;30157;55.512;37.764;2022-10-13T12:03:25;5.27;;;3.20;;
44197;SDS011;30157;55.512;37.764;2022-10-13T12:05:52;4.45;;;2.90;;
44197;SDS011;30157;55.512;37.764;2022-10-13T12:08:19;6.78;;;2.85;;
44197;SDS011;30157;55.512;37.764;2022-10-13T12:10:50;3.50;;;2.53;;
44197;SDS011;30157;55.512;37.764;2022-10-13T12:13:23;8.60;;;2.80;;
44197;SDS011;30157;55.512;37.764;2022-10-13T12:15:56;7.18;;;4.40;;
44197;SDS011;30157;55.512;37.764;2022-10-13T12:18:31;6.32;;;3.70;;
44197;SDS011;30157;55.512;37.764;2022-10-13T12:21:07;6.00;;;3.40;;
44197;SDS011;30157;55.512;37.764;2022-10-13T12:23:36;4.25;;;2.88;;
44197;SDS011;30157;55.512;37.764;2022-10-13T12:26:02;5.75;;;2.80;;
44197;SDS011;30157;55.512;37.764;2022-10-13T12:28:30;7.80;;;3.03;;
44197;SDS011;30157;55.512;37.764;2022-10-13T12:31:20;6.05;;;3.28;;
44197;SDS011;30157;55.512;37.764;2022-10-13T12:36:21;7.10;;;4.63;;
44197;SDS011;30157;55.512;37.764;2022-10-13T12:39:01;12.10;;;4.72;;
44197;SDS011;30157;55.512;37.764;2022-10-13T12:41:50;5.70;;;3.15;;
44197;SDS011;30157;55.512;37.764;2022-10-13T12:44:26;6.18;;;2.70;;
44197;SDS011;30157;55.512;37.764;2022-10-13T12:46:57;4.80;;;2.63;;
44197;SDS011;30157;55.512;37.764;2022-10-13T12:54:34;5.97;;;3.65;;
44197;SDS011;30157;55.512;37.764;2022-10-13T12:57:44;5.25;;;2.78;;
44197;SDS011;30157;55.512;37.764;2022-10-13T13:00:03;4.85;;;2.83;;
44197;SDS011;30157;55.512;37.764;2022-10-13T13:02:32;5.28;;;3.22;;
44197;SDS011;30157;55.512;37.764;2022-10-13T13:04:58;4.80;;;2.80;;
44197;SDS011;30157;55.512;37.764;2022-10-13T13:07:30;4.15;;;2.85;;
44197;SDS011;30157;55.512;37.764;2022-10-13T13:12:38;4.03;;;2.65;;
44197;SDS011;30157;55.512;37.764;2022-10-13T13:17:50;4.88;;;3.03;;
44197;SDS011;30157;55.512;37.764;2022-10-13T13:20:28;4.10;;;2.90;;
44197;SDS011;30157;55.512;37.764;2022-10-13T13:22:56;5.57;;;3.25;;
44197;SDS011;30157;55.512;37.764;2022-10-13T13:25:22;6.28;;;3.30;;
44197;SDS011;30157;55.512;37.764;2022-10-13T13:27:51;7.25;;;3.88;;
44197;SDS011;30157;55.512;37.764;2022-10-13T13:30:20;10.00;;;3.60;;
44197;SDS011;30157;55.512;37.764;2022-10-13T13:32:47;6.70;;;3.95;;
44197;SDS011;30157;55.512;37.764;2022-10-13T13:35:14;8.07;;;4.18;;
44197;SDS011;30157;55.512;37.764;2022-10-13T13:37:44;25.15;;;11.43;;
44197;SDS011;30157;55.512;37.764;2022-10-13T13:40:14;23.77;;;11.00;;
44197;SDS011;30157;55.512;37.764;2022-10-13T13:42:41;16.70;;;8.18;;
44197;SDS011;30157;55.512;37.764;2022-10-13T13:45:10;18.10;;;7.13;;
44197;SDS011;30157;55.512;37.764;2022-10-13T13:47:36;12.55;;;6.25;;
44197;SDS011;30157;55.512;37.764;2022-10-13T13:50:02;17.10;;;8.05;;
44197;SDS011;30157;55.512;37.764;2022-10-13T13:52:29;19.45;;;8.75;;
44197;SDS011;30157;55.512;37.764;2022-10-13T13:54:54;14.63;;;7.22;;
44197;SDS011;30157;55.512;37.764;2022-10-13T13:57:20;12.45;;;6.75;;
44197;SDS011;30157;55.512;37.764;2022-10-13T13:59:46;23.35;;;11.15;;
44197;SDS011;30157;55.512;37.764;2022-10-13T14:02:16;28.27;;;13.27;;
44197;SDS011;30157;55.512;37.764;2022-10-13T14:04:44;43.75;;;19.02;;
44197;SDS011;30157;55.512;37.764;2022-10-13T14:07:10;29.90;;;14.35;;
44197;SDS011;30157;55.512;37.764;2022-10-13T14:09:36;26.38;;;12.63;;
44197;SDS011;30157;55.512;37.764;2022-10-13T14:12:02;13.63;;;7.00;;
44197;SDS011;30157;55.512;37.764;2022-10-13T14:14:31;15.13;;;7.28;;
44197;SDS011;30157;55.512;37.764;2022-10-13T14:16:57;13.80;;;6.03;;
44197;SDS011;30157;55.512;37.764;2022-10-13T14:19:28;6.50;;;3.10;;
44197;SDS011;30157;55.512;37.764;2022-10-13T14:21:54;4.88;;;2.60;;
44197;SDS011;30157;55.512;37.764;2022-10-13T14:24:20;5.35;;;2.80;;
44197;SDS011;30157;55.512;37.764;2022-10-13T14:26:46;5.40;;;2.33;;
44197;SDS011;30157;55.512;37.764;2022-10-13T14:29:11;21.92;;;6.25;;
44197;SDS011;30157;55.512;37.764;2022-10-13T14:31:38;98.93;;;35.72;;
44197;SDS011;30157;55.512;37.764;2022-10-13T14:34:03;59.55;;;24.75;;
44197;SDS011;30157;55.512;37.764;2022-10-13T14:36:31;29.15;;;11.50;;
44197;SDS011;30157;55.512;37.764;2022-10-13T14:38:57;27.00;;;9.75;;
44197;SDS011;30157;55.512;37.764;2022-10-13T14:41:22;17.67;;;7.82;;
44197;SDS011;30157;55.512;37.764;2022-10-13T14:43:52;11.88;;;4.93;;
44197;SDS011;30157;55.512;37.764;2022-10-13T14:46:18;16.73;;;8.02;;
44197;SDS011;30157;55.512;37.764;2022-10-13T14:48:44;8.20;;;4.32;;
44197;SDS011;30157;55.512;37.764;2022-10-13T14:51:10;10.93;;;5.28;;
44197;SDS011;30157;55.512;37.764;2022-10-13T14:53:40;9.38;;;3.92;;
44197;SDS011;30157;55.512;37.764;2022-10-13T14:56:15;8.05;;;2.95;;
44197;SDS011;30157;55.512;37.764;2022-10-13T14:58:48;6.78;;;2.80;;
44197;SDS011;30157;55.512;37.764;2022-10-13T15:01:17;10.07;;;3.60;;
44197;SDS011;30157;55.512;37.764;2022-10-13T15:03:43;19.30;;;6.75;;
44197;SDS011;30157;55.512;37.764;2022-10-13T15:06:16;23.60;;;9.38;;
44197;SDS011;30157;55.512;37.764;2022-10-13T15:08:44;23.17;;;9.30;;
44197;SDS011;30157;55.512;37.764;2022-10-13T15:11:10;17.60;;;7.93;;
44197;SDS011;30157;55.512;37.764;2022-10-13T15:13:39;20.83;;;10.82;;
44197;SDS011;30157;55.512;37.764;2022-10-13T15:16:05;21.65;;;10.70;;
44197;SDS011;30157;55.512;37.764;2022-10-13T15:18:32;18.63;;;8.15;;
44197;SDS011;30157;55.512;37.764;2022-10-13T15:21:00;24.83;;;7.65;;
44197;SDS011;30157;55.512;37.764;2022-10-13T15:23:26;26.05;;;8.50;;
44197;SDS011;30157;55.512;37.764;2022-10-13T15:25:56;24.08;;;7.93;;
44197;SDS011;30157;55.512;37.764;2022-10-13T15:28:23;57.60;;;19.95;;
44197;SDS011;30157;55.512;37.764;2022-10-13T15:30:51;60.60;;;21.23;;
44197;SDS011;30157;55.512;37.764;2022-10-13T15:33:20;39.65;;;15.10;;
44197;SDS011;30157;55.512;37.764;2022-10-13T15:35:47;99.13;;;27.50;;
44197;SDS011;30157;55.512;37.764;2022-10-13T15:38:13;83.40;;;28.50;;
44197;SDS011;30157;55.512;37.764;2022-10-13T15:40:42;63.20;;;21.77;;
44197;SDS011;30157;55.512;37.764;2022-10-13T15:43:08;31.20;;;11.70;;
44197;SDS011;30157;55.512;37.764;2022-10-13T15:45:34;29.40;;;12.90;;
44197;SDS011;30157;55.512;37.764;2022-10-13T15:48:00;21.55;;;10.30;;
44197;SDS011;30157;55.512;37.764;2022-10-13T15:50:27;26.00;;;10.60;;
44197;SDS011;30157;55.512;37.764;2022-10-13T15:52:53;29.17;;;10.25;;
44197;SDS011;30157;55.512;37.764;2022-10-13T15:55:19;25.63;;;9.57;;
44197;SDS011;30157;55.512;37.764;2022-10-13T15:57:45;28.70;;;10.52;;
44197;SDS011;30157;55.512;37.764;2022-10-13T16:00:11;25.23;;;9.77;;
44197;SDS011;30157;55.512;37.764;2022-10-13T16:02:40;35.67;;;12.40;;
44197;SDS011;30157;55.512;37.764;2022-10-13T16:05:08;33.50;;;11.68;;
44197;SDS011;30157;55.512;37.764;2022-10-13T16:07:35;26.73;;;9.00;;
44197;SDS011;30157;55.512;37.764;2022-10-13T16:10:01;35.17;;;13.07;;
44197;SDS011;30157;55.512;37.764;2022-10-13T16:12:29;18.25;;;7.80;;
44197;SDS011;30157;55.512;37.764;2022-10-13T16:14:55;9.40;;;4.65;;
44197;SDS011;30157;55.512;37.764;2022-10-13T16:17:21;7.32;;;3.35;;
44197;SDS011;30157;55.512;37.764;2022-10-13T16:19:46;6.40;;;3.25;;
44197;SDS011;30157;55.512;37.764;2022-10-13T16:22:13;7.38;;;3.45;;
44197;SDS011;30157;55.512;37.764;2022-10-13T16:24:41;18.95;;;6.25;;
44197;SDS011;30157;55.512;37.764;2022-10-13T16:27:07;20.08;;;6.20;;
44197;SDS011;30157;55.512;37.764;2022-10-13T16:29:33;13.50;;;4.80;;
44197;SDS011;30157;55.512;37.764;2022-10-13T16:31:59;13.63;;;4.88;;
44197;SDS011;30157;55.512;37.764;2022-10-13T16:34:25;11.43;;;3.58;;
44197;SDS011;30157;55.512;37.764;2022-10-13T16:36:51;9.38;;;4.03;;
44197;SDS011;30157;55.512;37.764;2022-10-13T16:39:18;8.30;;;4.38;;
44197;SDS011;30157;55.512;37.764;2022-10-13T16:41:44;12.93;;;5.00;;
44197;SDS011;30157;55.512;37.764;2022-10-13T16:44:11;12.88;;;5.18;;
44197;SDS011;30157;55.512;37.764;2022-10-13T16:46:37;9.38;;;4.30;;
44197;SDS011;30157;55.512;37.764;2022-10-13T16:49:04;10.50;;;4.75;;
44197;SDS011;30157;55.512;37.764;2022-10-13T16:51:30;7.40;;;4.40;;
44197;SDS011;30157;55.512;37.764;2022-10-13T16:53:56;10.30;;;4.47;;